sensor_id;sensor_type;location;lat;lon;timestamp;pressure;altitude;pressure_sealevel;temperature;humidity
82458;BME280;72081;48.870;11.074;2024-03-25T00:00:42;96373.34;;;3.89;87.42
82458;BME280;72081;48.870;11.074;2024-03-25T00:03:07;96371.94;;;3.86;86.64
82458;BME280;72081;48.870;11.074;2024-03-25T00:05:32;96372.09;;;3.85;86.86
82458;BME280;72081;48.870;11.074;2024-03-25T00:07:58;96362.41;;;3.79;87.01
82458;BME280;72081;48.870;11.074;2024-03-25T00:10:23;96374.75;;;3.85;87.30
82458;BME280;72081;48.870;11.074;2024-03-25T00:12:49;96361.56;;;3.85;87.17
82458;BME280;72081;48.870;11.074;2024-03-25T00:15:18;96369.09;;;3.81;87.15
82458;BME280;72081;48.870;11.074;2024-03-25T00:17:45;96367.47;;;3.80;87.91
82458;BME280;72081;48.870;11.074;2024-03-25T00:20:12;96362.19;;;3.80;87.23
82458;BME280;72081;48.870;11.074;2024-03-25T00:22:38;96361.16;;;3.81;87.85
82458;BME280;72081;48.870;11.074;2024-03-25T00:25:03;96363.00;;;3.81;87.24
82458;BME280;72081;48.870;11.074;2024-03-25T00:27:29;96366.66;;;3.80;87.06
82458;BME280;72081;48.870;11.074;2024-03-25T00:29:55;96358.78;;;3.73;87.17
82458;BME280;72081;48.870;11.074;2024-03-25T00:32:20;96357.53;;;3.76;87.50
82458;BME280;72081;48.870;11.074;2024-03-25T00:34:45;96358.78;;;3.73;87.47
82458;BME280;72081;48.870;11.074;2024-03-25T00:37:11;96355.91;;;3.75;88.54
82458;BME280;72081;48.870;11.074;2024-03-25T00:39:36;96365.66;;;3.74;88.15
82458;BME280;72081;48.870;11.074;2024-03-25T00:42:01;96361.19;;;3.75;88.40
82458;BME280;72081;48.870;11.074;2024-03-25T00:44:27;96349.03;;;3.74;88.13
82458;BME280;72081;48.870;11.074;2024-03-25T00:46:52;96365.66;;;3.74;88.54
82458;BME280;72081;48.870;11.074;2024-03-25T00:49:17;96354.50;;;3.72;87.63
82458;BME280;72081;48.870;11.074;2024-03-25T00:51:42;96360.59;;;3.73;87.49
82458;BME280;72081;48.870;11.074;2024-03-25T00:54:08;96351.50;;;3.69;87.84
82458;BME280;72081;48.870;11.074;2024-03-25T00:56:34;96355.75;;;3.70;87.65
82458;BME280;72081;48.870;11.074;2024-03-25T00:58:59;96357.38;;;3.71;87.90
82458;BME280;72081;48.870;11.074;2024-03-25T01:01:31;96363.66;;;3.70;88.20
82458;BME280;72081;48.870;11.074;2024-03-25T01:03:57;96364.47;;;3.70;88.61
82458;BME280;72081;48.870;11.074;2024-03-25T01:06:23;96354.50;;;3.72;88.27
82458;BME280;72081;48.870;11.074;2024-03-25T01:08:49;96359.78;;;3.72;88.83
82458;BME280;72081;48.870;11.074;2024-03-25T01:11:14;96353.28;;;3.75;88.29
82458;BME280;72081;48.870;11.074;2024-03-25T01:13:40;96357.75;;;3.74;88.04
82458;BME280;72081;48.870;11.074;2024-03-25T01:16:07;96351.06;;;3.72;88.81
82458;BME280;72081;48.870;11.074;2024-03-25T01:18:32;96349.03;;;3.74;88.34
82458;BME280;72081;48.870;11.074;2024-03-25T01:20:58;96341.31;;;3.72;89.06
82458;BME280;72081;48.870;11.074;2024-03-25T01:23:23;96352.47;;;3.74;88.64
82458;BME280;72081;48.870;11.074;2024-03-25T01:25:48;96351.28;;;3.70;88.11
82458;BME280;72081;48.870;11.074;2024-03-25T01:28:13;96352.91;;;3.71;88.79
82458;BME280;72081;48.870;11.074;2024-03-25T01:30:39;96356.34;;;3.72;88.65
82458;BME280;72081;48.870;11.074;2024-03-25T01:33:05;96356.13;;;3.73;88.67
82458;BME280;72081;48.870;11.074;2024-03-25T01:35:31;96354.91;;;3.76;88.92
82458;BME280;72081;48.870;11.074;2024-03-25T01:37:56;96345.78;;;3.72;88.52
82458;BME280;72081;48.870;11.074;2024-03-25T01:40:24;96355.31;;;3.73;88.39
82458;BME280;72081;48.870;11.074;2024-03-25T01:45:22;96354.72;;;3.71;88.56
82458;BME280;72081;48.870;11.074;2024-03-25T01:47:48;96356.34;;;3.72;89.22
82458;BME280;72081;48.870;11.074;2024-03-25T01:50:13;96349.25;;;3.72;89.43
82458;BME280;72081;48.870;11.074;2024-03-25T01:52:39;96337.47;;;3.68;89.04
82458;BME280;72081;48.870;11.074;2024-03-25T01:55:07;96345.78;;;3.72;89.17
82458;BME280;72081;48.870;11.074;2024-03-25T01:57:34;96351.28;;;3.70;89.30
82458;BME280;72081;48.870;11.074;2024-03-25T01:59:59;96338.69;;;3.72;89.11
82458;BME280;72081;48.870;11.074;2024-03-25T02:02:24;96337.88;;;3.72;89.45
82458;BME280;72081;48.870;11.074;2024-03-25T02:05:53;96338.91;;;3.64;88.99
82458;BME280;72081;48.870;11.074;2024-03-25T02:08:21;96333.41;;;3.65;89.65
82458;BME280;72081;48.870;11.074;2024-03-25T02:10:46;96336.03;;;3.65;89.58
82458;BME280;72081;48.870;11.074;2024-03-25T02:13:12;96336.25;;;3.64;89.01
82458;BME280;72081;48.870;11.074;2024-03-25T02:15:38;96337.06;;;3.64;88.95
82458;BME280;72081;48.870;11.074;2024-03-25T02:18:03;96342.34;;;3.64;88.78
82458;BME280;72081;48.870;11.074;2024-03-25T02:20:29;96342.75;;;3.68;89.63
82458;BME280;72081;48.870;11.074;2024-03-25T02:22:54;96339.91;;;3.70;89.15
82458;BME280;72081;48.870;11.074;2024-03-25T02:25:21;96340.13;;;3.68;88.54
82458;BME280;72081;48.870;11.074;2024-03-25T02:27:46;96344.78;;;3.66;88.64
82458;BME280;72081;48.870;11.074;2024-03-25T02:30:13;96338.91;;;3.64;89.01
82458;BME280;72081;48.870;11.074;2024-03-25T02:32:39;96342.34;;;3.64;88.14
82458;BME280;72081;48.870;11.074;2024-03-25T02:35:07;96344.97;;;3.64;88.65
82458;BME280;72081;48.870;11.074;2024-03-25T02:37:35;96341.53;;;3.64;88.33
82458;BME280;72081;48.870;11.074;2024-03-25T02:40:01;96344.16;;;3.64;87.84
82458;BME280;72081;48.870;11.074;2024-03-25T02:42:26;96338.50;;;3.60;87.97
82458;BME280;72081;48.870;11.074;2024-03-25T02:44:54;96340.72;;;3.63;88.89
82458;BME280;72081;48.870;11.074;2024-03-25T02:47:19;96339.31;;;3.61;88.72
82458;BME280;72081;48.870;11.074;2024-03-25T02:49:45;96344.41;;;3.56;88.10
82458;BME280;72081;48.870;11.074;2024-03-25T02:52:10;96346.44;;;3.54;87.85
82458;BME280;72081;48.870;11.074;2024-03-25T02:54:36;96341.56;;;3.57;88.52
82458;BME280;72081;48.870;11.074;2024-03-25T02:57:01;96357.38;;;3.57;88.75
82458;BME280;72081;48.870;11.074;2024-03-25T02:59:26;96346.25;;;3.55;88.48
82458;BME280;72081;48.870;11.074;2024-03-25T03:01:51;96346.25;;;3.55;88.36
82458;BME280;72081;48.870;11.074;2024-03-25T03:04:17;96345.44;;;3.55;88.68
82458;BME280;72081;48.870;11.074;2024-03-25T03:06:42;96348.50;;;3.52;88.13
82458;BME280;72081;48.870;11.074;2024-03-25T03:09:07;96352.94;;;3.51;88.41
82458;BME280;72081;48.870;11.074;2024-03-25T03:11:32;96349.28;;;3.52;88.54
82458;BME280;72081;48.870;11.074;2024-03-25T03:13:58;96355.78;;;3.50;87.95
82458;BME280;72081;48.870;11.074;2024-03-25T03:16:23;96355.78;;;3.50;88.39
82458;BME280;72081;48.870;11.074;2024-03-25T03:18:48;96353.97;;;3.50;89.20
82458;BME280;72081;48.870;11.074;2024-03-25T03:21:14;96350.31;;;3.51;88.44
82458;BME280;72081;48.870;11.074;2024-03-25T03:23:39;96346.06;;;3.50;88.81
82458;BME280;72081;48.870;11.074;2024-03-25T03:26:04;96350.53;;;3.50;88.30
82458;BME280;72081;48.870;11.074;2024-03-25T03:28:33;96349.28;;;3.52;88.58
82458;BME280;72081;48.870;11.074;2024-03-25T03:30:58;96350.31;;;3.51;88.33
82458;BME280;72081;48.870;11.074;2024-03-25T03:33:24;96352.94;;;3.51;88.72
82458;BME280;72081;48.870;11.074;2024-03-25T03:35:49;96354.56;;;3.52;88.38
82458;BME280;72081;48.870;11.074;2024-03-25T03:38:14;96361.88;;;3.50;88.19
82458;BME280;72081;48.870;11.074;2024-03-25T03:40:39;96360.44;;;3.54;89.03
82458;BME280;72081;48.870;11.074;2024-03-25T03:43:05;96354.16;;;3.55;87.59
82458;BME280;72081;48.870;11.074;2024-03-25T03:45:33;96361.03;;;3.56;87.88
82458;BME280;72081;48.870;11.074;2024-03-25T03:48:00;96355.16;;;3.54;88.08
82458;BME280;72081;48.870;11.074;2024-03-25T03:50:25;96361.84;;;3.57;87.94
82458;BME280;72081;48.870;11.074;2024-03-25T03:52:50;96358.19;;;3.58;88.54
82458;BME280;72081;48.870;11.074;2024-03-25T03:55:16;96369.16;;;3.61;88.65
82458;BME280;72081;48.870;11.074;2024-03-25T03:57:42;96362.47;;;3.59;87.70
82458;BME280;72081;48.870;11.074;2024-03-25T04:00:08;96367.53;;;3.60;87.86
82458;BME280;72081;48.870;11.074;2024-03-25T04:02:34;96366.28;;;3.63;88.45
82458;BME280;72081;48.870;11.074;2024-03-25T04:04:59;96362.47;;;3.59;88.63
82458;BME280;72081;48.870;11.074;2024-03-25T04:07:25;96373.00;;;3.59;87.93
82458;BME280;72081;48.870;11.074;2024-03-25T04:09:54;96364.28;;;3.58;87.98
82458;BME280;72081;48.870;11.074;2024-03-25T04:12:19;96374.41;;;3.61;88.47
82458;BME280;72081;48.870;11.074;2024-03-25T04:14:46;96374.63;;;3.60;88.10
82458;BME280;72081;48.870;11.074;2024-03-25T04:17:14;96372.19;;;3.58;88.44
82458;BME280;72081;48.870;11.074;2024-03-25T04:19:39;96374.84;;;3.58;88.59
82458;BME280;72081;48.870;11.074;2024-03-25T04:22:04;96378.06;;;3.60;89.36
82458;BME280;72081;48.870;11.074;2024-03-25T04:24:29;96388.63;;;3.60;88.70
82458;BME280;72081;48.870;11.074;2024-03-25T04:26:55;96384.16;;;3.61;89.14
82458;BME280;72081;48.870;11.074;2024-03-25T04:29:20;96384.16;;;3.61;88.58
82458;BME280;72081;48.870;11.074;2024-03-25T04:31:45;96386.00;;;3.60;88.01
82458;BME280;72081;48.870;11.074;2024-03-25T04:34:10;96385.78;;;3.62;88.80
82458;BME280;72081;48.870;11.074;2024-03-25T04:36:36;96390.84;;;3.63;89.18
82458;BME280;72081;48.870;11.074;2024-03-25T04:39:01;96393.47;;;3.63;88.45
82458;BME280;72081;48.870;11.074;2024-03-25T04:41:27;96383.13;;;3.62;88.93
82458;BME280;72081;48.870;11.074;2024-03-25T04:43:52;96384.97;;;3.61;88.32
82458;BME280;72081;48.870;11.074;2024-03-25T04:46:17;96377.88;;;3.62;88.27
82458;BME280;72081;48.870;11.074;2024-03-25T04:48:43;96380.91;;;3.59;88.28
82458;BME280;72081;48.870;11.074;2024-03-25T04:51:08;96380.13;;;3.58;88.41
82458;BME280;72081;48.870;11.074;2024-03-25T04:54:37;96374.84;;;3.58;87.81
82458;BME280;72081;48.870;11.074;2024-03-25T04:57:02;96376.47;;;3.59;87.78
82458;BME280;72081;48.870;11.074;2024-03-25T04:59:28;96378.06;;;3.60;87.81
82458;BME280;72081;48.870;11.074;2024-03-25T05:01:53;96379.31;;;3.58;88.23
82458;BME280;72081;48.870;11.074;2024-03-25T05:04:18;96378.28;;;3.59;88.51
82458;BME280;72081;48.870;11.074;2024-03-25T05:06:45;96382.53;;;3.60;89.35
82458;BME280;72081;48.870;11.074;2024-03-25T05:09:10;96388.03;;;3.58;88.43
82458;BME280;72081;48.870;11.074;2024-03-25T05:11:36;96389.25;;;3.56;88.36
82458;BME280;72081;48.870;11.074;2024-03-25T05:14:01;96392.69;;;3.56;88.76
82458;BME280;72081;48.870;11.074;2024-03-25T05:16:26;96400.41;;;3.58;88.84
82458;BME280;72081;48.870;11.074;2024-03-25T05:18:51;96400.00;;;3.61;88.42
82458;BME280;72081;48.870;11.074;2024-03-25T05:21:17;96409.13;;;3.58;88.21
82458;BME280;72081;48.870;11.074;2024-03-25T05:23:42;96417.84;;;3.59;87.72
82458;BME280;72081;48.870;11.074;2024-03-25T05:26:07;96411.56;;;3.60;88.66
82458;BME280;72081;48.870;11.074;2024-03-25T05:28:33;96407.28;;;3.59;88.70
82458;BME280;72081;48.870;11.074;2024-03-25T05:31:08;96422.72;;;3.62;88.28
82458;BME280;72081;48.870;11.074;2024-03-25T05:33:34;96418.84;;;3.64;88.90
82458;BME280;72081;48.870;11.074;2024-03-25T05:36:00;96418.25;;;3.62;87.98
82458;BME280;72081;48.870;11.074;2024-03-25T05:38:26;96409.53;;;3.62;88.14
82458;BME280;72081;48.870;11.074;2024-03-25T05:40:52;96418.63;;;3.66;88.45
82458;BME280;72081;48.870;11.074;2024-03-25T05:43:18;96427.78;;;3.70;88.57
82458;BME280;72081;48.870;11.074;2024-03-25T05:45:52;96436.09;;;3.74;87.81
82458;BME280;72081;48.870;11.074;2024-03-25T05:48:18;96429.81;;;3.75;87.79
82458;BME280;72081;48.870;11.074;2024-03-25T05:50:44;96432.44;;;3.75;87.29
82458;BME280;72081;48.870;11.074;2024-03-25T05:53:09;96435.69;;;3.77;87.55
82458;BME280;72081;48.870;11.074;2024-03-25T05:55:34;96433.63;;;3.79;87.56
82458;BME280;72081;48.870;11.074;2024-03-25T05:58:00;96430.59;;;3.82;87.53
82458;BME280;72081;48.870;11.074;2024-03-25T06:00:25;96434.84;;;3.83;87.20
82458;BME280;72081;48.870;11.074;2024-03-25T06:02:51;96429.19;;;3.86;87.78
82458;BME280;72081;48.870;11.074;2024-03-25T06:05:18;96427.13;;;3.88;87.01
82458;BME280;72081;48.870;11.074;2024-03-25T06:07:43;96437.69;;;3.88;87.03
82458;BME280;72081;48.870;11.074;2024-03-25T06:10:09;96439.53;;;3.87;87.40
82458;BME280;72081;48.870;11.074;2024-03-25T06:12:34;96441.16;;;3.88;86.60
82458;BME280;72081;48.870;11.074;2024-03-25T06:14:59;96446.63;;;3.87;86.56
82458;BME280;72081;48.870;11.074;2024-03-25T06:17:25;96452.50;;;3.89;86.65
82458;BME280;72081;48.870;11.074;2024-03-25T06:19:50;96450.47;;;3.91;86.71
82458;BME280;72081;48.870;11.074;2024-03-25T06:22:16;96449.84;;;3.95;87.26
82458;BME280;72081;48.870;11.074;2024-03-25T06:24:42;96452.69;;;3.94;86.62
82458;BME280;72081;48.870;11.074;2024-03-25T06:27:08;96459.97;;;3.99;86.33
82458;BME280;72081;48.870;11.074;2024-03-25T06:29:33;96463.00;;;4.02;86.78
82458;BME280;72081;48.870;11.074;2024-03-25T06:32:01;96462.00;;;4.03;86.70
82458;BME280;72081;48.870;11.074;2024-03-25T06:34:45;96464.03;;;4.01;86.13
82458;BME280;72081;48.870;11.074;2024-03-25T06:37:10;96453.69;;;4.06;86.19
82458;BME280;72081;48.870;11.074;2024-03-25T06:39:35;96453.44;;;4.14;85.63
82458;BME280;72081;48.870;11.074;2024-03-25T06:42:01;96461.53;;;4.26;85.78
82458;BME280;72081;48.870;11.074;2024-03-25T06:44:26;96464.56;;;4.30;85.23
82458;BME280;72081;48.870;11.074;2024-03-25T06:46:51;96459.06;;;4.31;85.36
82458;BME280;72081;48.870;11.074;2024-03-25T06:49:16;96462.94;;;4.29;85.11
82458;BME280;72081;48.870;11.074;2024-03-25T06:51:42;96462.34;;;4.26;84.44
82458;BME280;72081;48.870;11.074;2024-03-25T06:54:07;96462.75;;;4.23;84.44
82458;BME280;72081;48.870;11.074;2024-03-25T06:56:32;96462.13;;;4.28;86.23
82458;BME280;72081;48.870;11.074;2024-03-25T06:58:57;96464.56;;;4.30;85.23
82458;BME280;72081;48.870;11.074;2024-03-25T07:01:23;96465.16;;;4.32;84.40
82458;BME280;72081;48.870;11.074;2024-03-25T07:03:48;96465.94;;;4.39;84.53
82458;BME280;72081;48.870;11.074;2024-03-25T07:06:13;96466.34;;;4.42;82.80
82458;BME280;72081;48.870;11.074;2024-03-25T07:08:39;96467.13;;;4.49;83.40
82458;BME280;72081;48.870;11.074;2024-03-25T07:11:04;96465.03;;;4.58;82.96
82458;BME280;72081;48.870;11.074;2024-03-25T07:13:29;96462.13;;;4.73;82.93
82458;BME280;72081;48.870;11.074;2024-03-25T07:15:55;96468.22;;;4.73;81.86
82458;BME280;72081;48.870;11.074;2024-03-25T07:18:20;96464.22;;;4.64;82.98
82458;BME280;72081;48.870;11.074;2024-03-25T07:20:46;96467.69;;;4.58;83.01
82458;BME280;72081;48.870;11.074;2024-03-25T07:23:11;96473.22;;;4.50;84.00
82458;BME280;72081;48.870;11.074;2024-03-25T07:25:36;96474.06;;;4.44;84.05
82458;BME280;72081;48.870;11.074;2024-03-25T07:28:03;96466.31;;;4.49;84.13
82458;BME280;72081;48.870;11.074;2024-03-25T07:30:29;96467.72;;;4.51;83.14
82458;BME280;72081;48.870;11.074;2024-03-25T07:32:57;96467.72;;;4.51;83.14
82458;BME280;72081;48.870;11.074;2024-03-25T07:35:24;96469.13;;;4.54;83.58
82458;BME280;72081;48.870;11.074;2024-03-25T07:37:49;96471.34;;;4.57;84.44
82458;BME280;72081;48.870;11.074;2024-03-25T07:40:20;96483.75;;;4.63;84.26
82458;BME280;72081;48.870;11.074;2024-03-25T07:43:24;96472.38;;;4.56;84.03
82458;BME280;72081;48.870;11.074;2024-03-25T07:45:49;96478.47;;;4.56;84.53
82458;BME280;72081;48.870;11.074;2024-03-25T07:48:14;96474.63;;;4.52;84.33
82458;BME280;72081;48.870;11.074;2024-03-25T07:50:39;96475.41;;;4.60;84.47
82458;BME280;72081;48.870;11.074;2024-03-25T07:53:05;96474.97;;;4.69;83.56
82458;BME280;72081;48.870;11.074;2024-03-25T07:55:30;96480.41;;;4.74;83.63
82458;BME280;72081;48.870;11.074;2024-03-25T07:57:56;96478.25;;;5.03;82.74
82458;BME280;72081;48.870;11.074;2024-03-25T08:00:21;96481.00;;;5.14;83.02
82458;BME280;72081;48.870;11.074;2024-03-25T08:02:46;96482.22;;;5.12;81.99
82458;BME280;72081;48.870;11.074;2024-03-25T08:05:12;96493.19;;;5.15;82.67
82458;BME280;72081;48.870;11.074;2024-03-25T08:07:37;96483.63;;;5.21;80.45
82458;BME280;72081;48.870;11.074;2024-03-25T08:10:03;96493.16;;;5.22;79.69
82458;BME280;72081;48.870;11.074;2024-03-25T08:12:29;96486.50;;;5.38;79.25
82458;BME280;72081;48.870;11.074;2024-03-25T08:14:54;96484.28;;;5.41;79.23
82458;BME280;72081;48.870;11.074;2024-03-25T08:17:19;96484.38;;;5.53;78.82
82458;BME280;72081;48.870;11.074;2024-03-25T08:19:44;96484.59;;;6.20;78.27
82458;BME280;72081;48.870;11.074;2024-03-25T08:22:10;96484.31;;;6.46;75.50
82458;BME280;72081;48.870;11.074;2024-03-25T08:24:35;96474.91;;;6.80;75.16
82458;BME280;72081;48.870;11.074;2024-03-25T08:27:00;96477.13;;;6.65;74.39
82458;BME280;72081;48.870;11.074;2024-03-25T08:29:25;96467.25;;;6.72;73.52
82458;BME280;72081;48.870;11.074;2024-03-25T08:31:51;96464.16;;;7.70;71.60
82458;BME280;72081;48.870;11.074;2024-03-25T08:34:16;96465.19;;;7.81;69.97
82458;BME280;72081;48.870;11.074;2024-03-25T08:36:41;96470.38;;;7.64;70.99
82458;BME280;72081;48.870;11.074;2024-03-25T08:39:07;96470.72;;;7.03;70.92
82458;BME280;72081;48.870;11.074;2024-03-25T08:41:32;96472.22;;;6.50;72.15
82458;BME280;72081;48.870;11.074;2024-03-25T08:43:58;96472.28;;;6.62;73.20
82458;BME280;72081;48.870;11.074;2024-03-25T08:46:23;96460.31;;;6.71;71.18
82458;BME280;72081;48.870;11.074;2024-03-25T08:48:48;96456.84;;;6.59;72.88
82458;BME280;72081;48.870;11.074;2024-03-25T08:51:13;96456.81;;;7.19;71.96
82458;BME280;72081;48.870;11.074;2024-03-25T08:53:39;96464.03;;;7.53;69.76
82458;BME280;72081;48.870;11.074;2024-03-25T08:56:04;96462.44;;;7.52;70.39
82458;BME280;72081;48.870;11.074;2024-03-25T08:58:29;96456.09;;;7.12;70.27
82458;BME280;72081;48.870;11.074;2024-03-25T09:00:55;96462.22;;;6.82;71.01
82458;BME280;72081;48.870;11.074;2024-03-25T09:03:21;96457.88;;;6.88;71.48
82458;BME280;72081;48.870;11.074;2024-03-25T09:05:47;96449.41;;;7.74;66.54
82458;BME280;72081;48.870;11.074;2024-03-25T09:08:12;96452.38;;;8.01;66.29
82458;BME280;72081;48.870;11.074;2024-03-25T09:10:38;96455.50;;;7.75;66.86
82458;BME280;72081;48.870;11.074;2024-03-25T09:13:22;96454.47;;;7.52;69.77
82458;BME280;72081;48.870;11.074;2024-03-25T09:15:50;96452.09;;;7.32;67.68
82458;BME280;72081;48.870;11.074;2024-03-25T09:18:15;96450.34;;;7.26;67.70
82458;BME280;72081;48.870;11.074;2024-03-25T09:20:41;96449.41;;;7.74;66.48
82458;BME280;72081;48.870;11.074;2024-03-25T09:23:06;96442.78;;;7.88;65.79
82458;BME280;72081;48.870;11.074;2024-03-25T09:25:32;96447.78;;;7.73;65.53
82458;BME280;72081;48.870;11.074;2024-03-25T09:27:58;96448.34;;;7.87;64.68
82458;BME280;72081;48.870;11.074;2024-03-25T09:30:23;96439.44;;;8.05;62.39
82458;BME280;72081;48.870;11.074;2024-03-25T09:32:48;96440.59;;;7.85;64.80
82458;BME280;72081;48.870;11.074;2024-03-25T09:35:13;96446.13;;;7.49;63.43
82458;BME280;72081;48.870;11.074;2024-03-25T09:37:39;96448.28;;;7.17;63.11
82458;BME280;72081;48.870;11.074;2024-03-25T09:40:05;96447.75;;;6.96;61.46
82458;BME280;72081;48.870;11.074;2024-03-25T09:42:38;96444.03;;;6.86;63.85
82458;BME280;72081;48.870;11.074;2024-03-25T09:45:06;96439.75;;;6.85;65.23
82458;BME280;72081;48.870;11.074;2024-03-25T09:47:33;96447.00;;;6.78;65.62
82458;BME280;72081;48.870;11.074;2024-03-25T09:49:59;96437.59;;;6.63;64.22
82458;BME280;72081;48.870;11.074;2024-03-25T09:52:27;96428.31;;;6.54;65.44
82458;BME280;72081;48.870;11.074;2024-03-25T09:54:52;96418.13;;;6.99;63.36
82458;BME280;72081;48.870;11.074;2024-03-25T09:57:18;96415.66;;;7.63;61.74
82458;BME280;72081;48.870;11.074;2024-03-25T09:59:43;96407.03;;;8.31;62.39
82458;BME280;72081;48.870;11.074;2024-03-25T10:02:10;96406.25;;;8.71;58.89
82458;BME280;72081;48.870;11.074;2024-03-25T10:04:40;96402.41;;;8.67;57.40
82458;BME280;72081;48.870;11.074;2024-03-25T10:07:09;96396.34;;;8.83;58.22
82458;BME280;72081;48.870;11.074;2024-03-25T10:09:34;96397.66;;;8.97;58.95
82458;BME280;72081;48.870;11.074;2024-03-25T10:11:59;96399.47;;;9.08;56.18
82458;BME280;72081;48.870;11.074;2024-03-25T10:14:25;96387.34;;;9.18;54.85
82458;BME280;72081;48.870;11.074;2024-03-25T10:16:50;96386.00;;;9.32;53.48
82458;BME280;72081;48.870;11.074;2024-03-25T10:19:15;96388.09;;;9.30;53.30
82458;BME280;72081;48.870;11.074;2024-03-25T10:21:40;96384.75;;;9.56;53.61
82458;BME280;72081;48.870;11.074;2024-03-25T10:24:06;96384.69;;;9.68;53.17
82458;BME280;72081;48.870;11.074;2024-03-25T10:26:32;96385.56;;;9.23;53.62
82458;BME280;72081;48.870;11.074;2024-03-25T10:28:59;96391.03;;;8.55;56.35
82458;BME280;72081;48.870;11.074;2024-03-25T10:32:10;96386.91;;;8.75;55.97
82458;BME280;72081;48.870;11.074;2024-03-25T10:34:35;96382.38;;;8.76;56.13
82458;BME280;72081;48.870;11.074;2024-03-25T10:37:01;96377.03;;;8.59;55.20
82458;BME280;72081;48.870;11.074;2024-03-25T10:39:31;96379.88;;;8.69;55.63
82458;BME280;72081;48.870;11.074;2024-03-25T10:41:57;96371.44;;;9.06;55.62
82458;BME280;72081;48.870;11.074;2024-03-25T10:44:23;96363.72;;;9.38;54.62
82458;BME280;72081;48.870;11.074;2024-03-25T10:46:56;96356.69;;;9.65;53.57
82458;BME280;72081;48.870;11.074;2024-03-25T10:49:44;96345.00;;;9.88;52.33
82458;BME280;72081;48.870;11.074;2024-03-25T10:52:14;96346.59;;;10.11;52.86
82458;BME280;72081;48.870;11.074;2024-03-25T10:54:40;96340.78;;;10.14;48.96
82458;BME280;72081;48.870;11.074;2024-03-25T10:57:07;96325.28;;;10.11;48.76
82458;BME280;72081;48.870;11.074;2024-03-25T10:59:33;96332.28;;;10.17;49.61
82458;BME280;72081;48.870;11.074;2024-03-25T11:02:03;96330.97;;;10.20;49.67
82458;BME280;72081;48.870;11.074;2024-03-25T11:04:28;96322.84;;;10.26;48.89
82458;BME280;72081;48.870;11.074;2024-03-25T11:07:15;96323.88;;;10.03;47.63
82458;BME280;72081;48.870;11.074;2024-03-25T11:09:41;96320.09;;;10.21;49.12
82458;BME280;72081;48.870;11.074;2024-03-25T11:12:10;96317.53;;;10.31;47.20
82458;BME280;72081;48.870;11.074;2024-03-25T11:14:35;96304.25;;;10.37;46.72
82458;BME280;72081;48.870;11.074;2024-03-25T11:17:01;96310.31;;;10.54;47.32
82458;BME280;72081;48.870;11.074;2024-03-25T11:19:28;96302.97;;;10.66;47.99
82458;BME280;72081;48.870;11.074;2024-03-25T11:21:57;96292.09;;;10.78;45.78
82458;BME280;72081;48.870;11.074;2024-03-25T11:24:31;96290.56;;;10.82;45.49
82458;BME280;72081;48.870;11.074;2024-03-25T11:26:56;96287.56;;;10.46;46.81
82458;BME280;72081;48.870;11.074;2024-03-25T11:29:22;96278.75;;;10.46;48.74
82458;BME280;72081;48.870;11.074;2024-03-25T11:31:49;96277.16;;;10.77;47.98
82458;BME280;72081;48.870;11.074;2024-03-25T11:34:15;96276.50;;;10.91;45.37
82458;BME280;72081;48.870;11.074;2024-03-25T11:36:40;96269.22;;;11.19;44.76
82458;BME280;72081;48.870;11.074;2024-03-25T11:39:06;96266.59;;;11.24;46.30
82458;BME280;72081;48.870;11.074;2024-03-25T11:41:39;96266.25;;;11.58;45.15
82458;BME280;72081;48.870;11.074;2024-03-25T11:44:04;96268.50;;;11.34;45.58
82458;BME280;72081;48.870;11.074;2024-03-25T11:46:30;96269.28;;;11.29;44.70
82458;BME280;72081;48.870;11.074;2024-03-25T11:48:55;96259.44;;;11.35;46.81
82458;BME280;72081;48.870;11.074;2024-03-25T11:51:21;96255.25;;;11.49;45.83
82458;BME280;72081;48.870;11.074;2024-03-25T11:53:46;96258.94;;;11.38;46.42
82458;BME280;72081;48.870;11.074;2024-03-25T11:56:12;96258.03;;;10.85;46.92
82458;BME280;72081;48.870;11.074;2024-03-25T11:58:38;96255.75;;;10.40;48.54
82458;BME280;72081;48.870;11.074;2024-03-25T12:01:03;96253.09;;;10.18;47.06
82458;BME280;72081;48.870;11.074;2024-03-25T12:03:29;96251.09;;;10.03;48.98
82458;BME280;72081;48.870;11.074;2024-03-25T12:05:55;96252.78;;;9.87;47.03
82458;BME280;72081;48.870;11.074;2024-03-25T12:08:21;96254.81;;;9.80;47.02
82458;BME280;72081;48.870;11.074;2024-03-25T12:10:50;96251.50;;;9.68;48.02
82458;BME280;72081;48.870;11.074;2024-03-25T12:13:35;96249.13;;;9.71;48.35
82458;BME280;72081;48.870;11.074;2024-03-25T12:16:00;96240.59;;;9.69;46.76
82458;BME280;72081;48.870;11.074;2024-03-25T12:18:26;96237.66;;;9.71;49.10
82458;BME280;72081;48.870;11.074;2024-03-25T12:20:51;96234.00;;;9.77;48.54
82458;BME280;72081;48.870;11.074;2024-03-25T12:23:17;96234.84;;;9.83;47.24
82458;BME280;72081;48.870;11.074;2024-03-25T12:25:48;96234.69;;;9.67;49.26
82458;BME280;72081;48.870;11.074;2024-03-25T12:28:14;96231.03;;;9.73;49.29
82458;BME280;72081;48.870;11.074;2024-03-25T12:30:53;96235.69;;;9.61;49.08
82458;BME280;72081;48.870;11.074;2024-03-25T12:33:18;96232.84;;;9.46;46.75
82458;BME280;72081;48.870;11.074;2024-03-25T12:35:48;96219.19;;;9.42;47.15
82458;BME280;72081;48.870;11.074;2024-03-25T12:38:26;96222.66;;;9.43;48.88
82458;BME280;72081;48.870;11.074;2024-03-25T12:40:53;96215.25;;;9.45;48.83
82458;BME280;72081;48.870;11.074;2024-03-25T12:43:18;96211.03;;;9.49;46.02
82458;BME280;72081;48.870;11.074;2024-03-25T12:45:43;96201.84;;;9.40;45.47
82458;BME280;72081;48.870;11.074;2024-03-25T12:48:09;96203.09;;;9.54;48.06
82458;BME280;72081;48.870;11.074;2024-03-25T12:50:36;96192.59;;;9.64;46.18
82458;BME280;72081;48.870;11.074;2024-03-25T12:53:01;96191.03;;;9.68;47.35
82458;BME280;72081;48.870;11.074;2024-03-25T12:55:28;96188.88;;;9.65;47.03
82458;BME280;72081;48.870;11.074;2024-03-25T12:57:54;96186.41;;;9.64;47.51
82458;BME280;72081;48.870;11.074;2024-03-25T13:00:19;96181.34;;;9.62;47.78